createdAt,value
2018-04-29T00:01:32.002Z,9.30
2018-04-29T00:04:34.461Z,7.03
2018-04-29T00:07:36.969Z,8.90
2018-04-29T00:10:39.420Z,8.93
2018-04-29T00:13:41.884Z,9.50
2018-04-29T00:16:44.333Z,7.17
2018-04-29T00:19:46.813Z,10.60
2018-04-29T00:22:49.284Z,7.77
2018-04-29T00:25:51.819Z,8.43
2018-04-29T00:28:54.303Z,7.53
2018-04-29T00:31:56.754Z,8.77
2018-04-29T00:34:59.234Z,8.87
2018-04-29T00:38:01.759Z,10.40
2018-04-29T00:41:04.332Z,11.90
2018-04-29T00:44:06.864Z,10.27
2018-04-29T00:47:09.345Z,8.50
2018-04-29T00:50:11.912Z,9.90
2018-04-29T00:53:14.380Z,6.07
2018-04-29T00:56:16.851Z,12.63
2018-04-29T00:59:19.394Z,6.87
2018-04-29T01:02:21.884Z,8.90
2018-04-29T01:05:24.351Z,9.90
2018-04-29T01:08:26.885Z,10.90
2018-04-29T01:11:29.480Z,9.60
2018-04-29T01:14:31.904Z,9.23
2018-04-29T01:17:34.417Z,13.33
2018-04-29T01:20:36.863Z,13.37
2018-04-29T01:23:39.343Z,13.20
2018-04-29T01:26:41.838Z,9.03
2018-04-29T01:29:44.312Z,13.27
2018-04-29T01:32:46.779Z,13.10
2018-04-29T01:35:49.305Z,10.30
2018-04-29T01:38:51.750Z,12.13
2018-04-29T01:41:54.293Z,12.03
2018-04-29T01:44:56.839Z,9.37
2018-04-29T01:48:00.155Z,13.00
2018-04-29T01:51:02.621Z,9.07
2018-04-29T01:54:05.070Z,9.07
2018-04-29T01:57:07.585Z,12.07
2018-04-29T02:00:10.157Z,10.53
2018-04-29T02:03:12.628Z,10.20
2018-04-29T02:06:15.161Z,8.60
2018-04-29T02:09:17.679Z,10.73
2018-04-29T02:12:20.160Z,10.10
2018-04-29T02:15:22.645Z,8.70
2018-04-29T02:18:25.159Z,13.13
2018-04-29T02:21:27.591Z,8.60
2018-04-29T02:24:30.056Z,8.87
2018-04-29T02:27:32.735Z,12.50
2018-04-29T02:30:35.168Z,9.27
2018-04-29T02:33:37.697Z,9.47
2018-04-29T02:36:40.162Z,13.00
2018-04-29T02:39:42.649Z,12.27
2018-04-29T02:42:45.205Z,11.63
2018-04-29T02:45:47.657Z,13.80
2018-04-29T02:48:50.395Z,11.03
2018-04-29T02:51:52.845Z,16.60
2018-04-29T02:54:55.422Z,15.17
2018-04-29T02:57:57.917Z,13.20
2018-04-29T03:01:00.407Z,16.57
2018-04-29T03:04:02.856Z,17.23
2018-04-29T03:07:05.360Z,18.33
2018-04-29T03:10:07.855Z,14.70
2018-04-29T03:13:10.302Z,15.53
2018-04-29T03:16:12.802Z,17.03
2018-04-29T03:19:15.316Z,19.80
2018-04-29T03:22:17.811Z,15.53
2018-04-29T03:25:20.257Z,13.30
2018-04-29T03:28:22.740Z,13.90
2018-04-29T03:31:25.240Z,12.53
2018-04-29T03:34:27.705Z,14.80
2018-04-29T03:37:30.262Z,16.53
2018-04-29T03:40:32.712Z,14.30
2018-04-29T03:43:35.180Z,21.27
2018-04-29T03:46:37.702Z,12.57
2018-04-29T03:49:40.258Z,17.10
2018-04-29T03:52:43.165Z,17.73
2018-04-29T03:55:45.676Z,13.47
2018-04-29T03:58:59.992Z,17.00
2018-04-29T04:02:14.315Z,27.50
2018-04-29T04:05:16.771Z,18.53
2018-04-29T04:08:19.242Z,15.43
2018-04-29T04:11:21.711Z,20.07
2018-04-29T04:14:24.227Z,23.60
2018-04-29T04:17:26.726Z,16.10
2018-04-29T04:20:29.192Z,16.10
2018-04-29T04:23:31.676Z,14.50
2018-04-29T04:26:34.236Z,12.30
2018-04-29T04:29:36.678Z,14.13
2018-04-29T04:32:39.226Z,14.43
2018-04-29T04:35:41.717Z,12.87
2018-04-29T04:38:44.203Z,10.97
2018-04-29T04:41:46.621Z,14.57
2018-04-29T04:44:49.165Z,10.10
2018-04-29T04:47:51.767Z,11.67
2018-04-29T04:50:54.265Z,12.53
2018-04-29T04:53:56.746Z,8.63
2018-04-29T04:56:59.267Z,14.73
2018-04-29T05:00:01.757Z,8.97
2018-04-29T05:03:04.296Z,10.37
2018-04-29T05:06:06.778Z,11.13
2018-04-29T05:09:09.297Z,10.10
2018-04-29T05:12:11.787Z,10.37
2018-04-29T05:15:14.284Z,9.10
2018-04-29T05:18:16.775Z,9.00
2018-04-29T05:21:19.285Z,13.07
2018-04-29T05:24:21.743Z,9.37
2018-04-29T05:27:24.313Z,9.00
2018-04-29T05:30:26.853Z,14.43
2018-04-29T05:33:29.443Z,9.13
2018-04-29T05:36:31.937Z,9.90
2018-04-29T05:39:34.394Z,8.73
2018-04-29T05:42:36.918Z,7.77
2018-04-29T05:45:39.387Z,7.70
2018-04-29T05:48:41.868Z,11.20
2018-04-29T05:51:44.329Z,10.27
2018-04-29T05:54:46.881Z,10.67
2018-04-29T05:57:49.340Z,10.53
2018-04-29T06:00:51.819Z,9.53
2018-04-29T06:03:54.329Z,11.57
2018-04-29T06:06:56.830Z,10.47
2018-04-29T06:10:00.235Z,11.30
2018-04-29T06:13:02.744Z,11.50
2018-04-29T06:16:05.271Z,9.20
2018-04-29T06:19:07.834Z,13.40
2018-04-29T06:22:10.336Z,8.97
2018-04-29T06:25:12.877Z,10.73
2018-04-29T06:28:15.364Z,10.40
2018-04-29T06:31:17.833Z,12.60
2018-04-29T06:34:20.330Z,11.27
2018-04-29T06:37:22.830Z,12.00
2018-04-29T06:40:25.335Z,14.27
2018-04-29T06:43:27.823Z,15.30
2018-04-29T06:46:30.441Z,14.10
2018-04-29T06:49:32.988Z,12.97
2018-04-29T06:52:35.475Z,16.30
2018-04-29T06:55:37.925Z,14.00
2018-04-29T06:58:40.494Z,13.73
2018-04-29T07:01:42.959Z,17.87
2018-04-29T07:04:45.463Z,12.93
2018-04-29T07:07:47.978Z,16.73
2018-04-29T07:10:50.524Z,14.13
2018-04-29T07:13:52.975Z,14.30
2018-04-29T07:16:55.489Z,22.10
2018-04-29T07:19:58.023Z,18.03
2018-04-29T07:23:00.526Z,13.47
2018-04-29T07:26:03.077Z,16.37
2018-04-29T07:29:05.603Z,15.97
2018-04-29T07:32:08.109Z,14.87
2018-04-29T07:35:10.620Z,19.20
2018-04-29T07:38:13.143Z,17.20
2018-04-29T07:41:15.591Z,15.03
2018-04-29T07:44:18.110Z,13.73
2018-04-29T07:47:20.652Z,15.67
2018-04-29T07:50:23.245Z,17.60
2018-04-29T07:53:25.748Z,18.63
2018-04-29T07:56:28.216Z,19.03
2018-04-29T07:59:30.705Z,18.10
2018-04-29T08:02:33.207Z,16.57
2018-04-29T08:05:35.675Z,15.23
2018-04-29T08:08:38.243Z,14.33
2018-04-29T08:11:40.794Z,13.50
2018-04-29T08:14:43.362Z,15.33
2018-04-29T08:17:45.838Z,16.70
2018-04-29T08:20:48.368Z,17.57
2018-04-29T08:23:50.871Z,15.07
2018-04-29T08:26:53.432Z,12.50
2018-04-29T08:29:56.025Z,11.63
2018-04-29T08:32:58.540Z,11.67
2018-04-29T08:36:01.051Z,11.07
2018-04-29T08:39:03.567Z,9.77
2018-04-29T08:42:06.091Z,9.37
2018-04-29T08:45:08.598Z,8.33
2018-04-29T08:48:11.147Z,7.97
2018-04-29T08:51:13.661Z,20.30
2018-04-29T08:54:16.159Z,11.53
2018-04-29T08:57:18.683Z,12.47
2018-04-29T09:00:21.258Z,10.40
2018-04-29T09:03:23.732Z,12.27
2018-04-29T09:06:26.251Z,12.27
2018-04-29T09:09:28.744Z,12.80
2018-04-29T09:12:31.243Z,9.40
2018-04-29T09:15:33.822Z,11.60
2018-04-29T09:18:36.284Z,9.03
2018-04-29T09:21:38.905Z,11.13
2018-04-29T09:24:41.387Z,11.97
2018-04-29T09:27:43.865Z,10.63
2018-04-29T09:30:46.352Z,11.60
2018-04-29T09:33:48.812Z,11.83
2018-04-29T09:36:51.337Z,10.17
2018-04-29T09:39:53.857Z,12.50
2018-04-29T09:42:56.375Z,8.93
2018-04-29T09:45:58.975Z,10.20
2018-04-29T09:49:01.501Z,12.57
2018-04-29T09:52:04.039Z,14.87
2018-04-29T09:55:06.503Z,12.53
2018-04-29T09:58:09.168Z,7.20
2018-04-29T10:01:17.681Z,13.37
2018-04-29T10:04:20.191Z,11.20
2018-04-29T10:07:22.686Z,11.83
2018-04-29T10:10:25.195Z,10.43
2018-04-29T10:13:27.665Z,6.17
2018-04-29T10:16:30.171Z,7.87
2018-04-29T10:19:32.706Z,6.77
2018-04-29T10:22:35.295Z,7.70
2018-04-29T10:25:37.821Z,8.57
2018-04-29T10:28:40.284Z,10.47
2018-04-29T10:31:42.792Z,8.20
2018-04-29T10:34:45.309Z,12.53
2018-04-29T10:37:47.811Z,8.40
2018-04-29T10:40:50.328Z,13.20
2018-04-29T10:43:52.851Z,9.20
2018-04-29T10:46:55.318Z,11.03
2018-04-29T10:49:57.976Z,9.90
2018-04-29T10:53:00.513Z,13.43
2018-04-29T10:56:03.043Z,13.80
2018-04-29T10:59:05.775Z,7.30
2018-04-29T11:02:08.347Z,8.93
2018-04-29T11:05:10.821Z,9.73
2018-04-29T11:08:13.363Z,11.50
2018-04-29T11:11:16.017Z,12.03
2018-04-29T11:14:18.584Z,11.07
2018-04-29T11:17:21.144Z,15.13
2018-04-29T11:20:23.692Z,8.87
2018-04-29T11:23:26.163Z,12.13
2018-04-29T11:26:28.697Z,17.40
2018-04-29T11:29:31.219Z,9.93
2018-04-29T11:32:33.752Z,8.87
2018-04-29T11:35:36.254Z,10.50
2018-04-29T11:38:38.744Z,8.40
2018-04-29T11:41:41.279Z,11.13
2018-04-29T11:44:44.007Z,10.40
2018-04-29T11:47:46.506Z,11.37
2018-04-29T11:50:49.043Z,11.13
2018-04-29T11:53:51.543Z,13.53
2018-04-29T11:56:54.151Z,9.17
2018-04-29T11:59:56.718Z,8.20
2018-04-29T12:02:59.219Z,5.20
2018-04-29T12:06:01.774Z,6.83
2018-04-29T12:09:04.331Z,6.20
2018-04-29T12:12:06.900Z,7.30
2018-04-29T12:15:09.415Z,6.70
2018-04-29T12:18:11.991Z,8.67
2018-04-29T12:21:14.477Z,7.17
2018-04-29T12:24:17.011Z,11.40
2018-04-29T12:27:19.608Z,8.20
2018-04-29T12:30:22.198Z,6.17
2018-04-29T12:33:24.657Z,8.90
2018-04-29T12:36:27.280Z,8.03
2018-04-29T12:39:29.869Z,8.17
2018-04-29T12:42:32.355Z,8.80
2018-04-29T12:45:34.914Z,4.77
2018-04-29T12:48:37.455Z,8.57
2018-04-29T12:51:39.929Z,9.23
2018-04-29T12:54:42.444Z,11.33
2018-04-29T12:57:44.904Z,6.70
2018-04-29T13:00:47.397Z,6.67
2018-04-29T13:03:49.883Z,6.70
2018-04-29T13:06:52.380Z,6.50
2018-04-29T13:09:54.858Z,7.13
2018-04-29T13:12:57.389Z,11.13
2018-04-29T13:15:59.931Z,4.87
2018-04-29T13:19:02.435Z,6.27
2018-04-29T13:22:04.999Z,6.13
2018-04-29T13:25:07.513Z,6.67
2018-04-29T13:28:10.031Z,6.30
2018-04-29T13:31:12.549Z,5.87
2018-04-29T13:34:15.069Z,4.90
2018-04-29T13:37:17.529Z,5.07
2018-04-29T13:40:20.078Z,6.83
2018-04-29T13:43:22.542Z,5.73
2018-04-29T13:46:25.045Z,4.53
2018-04-29T13:49:27.584Z,7.00
2018-04-29T13:52:30.114Z,5.03
2018-04-29T13:55:32.614Z,3.73
2018-04-29T13:58:35.154Z,5.93
2018-04-29T14:01:37.657Z,4.80
2018-04-29T14:04:40.136Z,3.50
2018-04-29T14:07:42.632Z,3.60
2018-04-29T14:10:45.164Z,6.90
2018-04-29T14:13:47.636Z,4.53
2018-04-29T14:16:51.169Z,5.67
2018-04-29T14:19:53.796Z,4.07
2018-04-29T14:22:56.314Z,5.20
2018-04-29T14:25:58.863Z,6.10
2018-04-29T14:29:01.407Z,4.87
2018-04-29T14:32:03.870Z,6.83
2018-04-29T14:35:06.602Z,5.77
2018-04-29T14:38:09.075Z,4.10
2018-04-29T14:41:11.560Z,5.97
2018-04-29T14:44:14.084Z,5.10
2018-04-29T14:47:16.594Z,8.00
2018-04-29T14:50:19.062Z,6.03
2018-04-29T14:53:21.674Z,6.80
2018-04-29T14:56:24.232Z,6.00
2018-04-29T14:59:26.794Z,4.60
2018-04-29T15:02:29.265Z,6.93
2018-04-29T15:05:31.774Z,5.37
2018-04-29T15:08:34.284Z,5.10
2018-04-29T15:11:36.782Z,9.27
2018-04-29T15:14:39.372Z,5.43
2018-04-29T15:17:41.928Z,4.20
2018-04-29T15:20:44.534Z,7.87
2018-04-29T15:23:47.057Z,4.10
2018-04-29T15:26:49.584Z,4.80
2018-04-29T15:29:52.090Z,4.43
2018-04-29T15:32:54.571Z,4.40
2018-04-29T15:35:57.089Z,5.83
2018-04-29T15:38:59.578Z,4.83
2018-04-29T15:42:02.094Z,8.87
2018-04-29T15:45:04.685Z,11.50
2018-04-29T15:48:07.102Z,6.63
2018-04-29T15:51:09.565Z,6.57
2018-04-29T15:54:12.111Z,4.83
2018-04-29T15:57:14.605Z,9.80
2018-04-29T16:00:17.136Z,7.20
2018-04-29T16:03:19.692Z,6.30
2018-04-29T16:06:22.220Z,6.40
2018-04-29T16:09:24.725Z,5.37
2018-04-29T16:12:27.239Z,7.60
2018-04-29T16:15:29.759Z,6.23
2018-04-29T16:18:32.346Z,8.93
2018-04-29T16:21:34.968Z,5.87
2018-04-29T16:24:37.503Z,7.83
2018-04-29T16:27:39.988Z,12.67
2018-04-29T16:30:42.506Z,9.57
2018-04-29T16:33:45.027Z,7.83
2018-04-29T16:36:47.565Z,8.13
2018-04-29T16:39:50.247Z,8.63
2018-04-29T16:42:52.760Z,6.83
2018-04-29T16:45:55.300Z,6.10
2018-04-29T16:48:57.827Z,7.00
2018-04-29T16:52:00.311Z,7.30
2018-04-29T16:55:02.850Z,14.17
2018-04-29T16:58:05.431Z,13.20
2018-04-29T17:01:07.935Z,12.60
2018-04-29T17:04:10.475Z,5.83
2018-04-29T17:07:13.019Z,10.93
2018-04-29T17:10:15.559Z,6.27
2018-04-29T17:13:18.113Z,9.37
2018-04-29T17:16:20.640Z,7.20
2018-04-29T17:19:23.181Z,5.13
2018-04-29T17:22:25.669Z,7.80
2018-04-29T17:25:28.190Z,6.83
2018-04-29T17:28:30.710Z,10.27
2018-04-29T17:31:33.191Z,5.30
2018-04-29T17:34:35.756Z,6.30
2018-04-29T17:37:38.239Z,6.90
2018-04-29T17:40:40.774Z,7.43
2018-04-29T17:43:43.292Z,7.20
2018-04-29T17:46:45.820Z,4.77
2018-04-29T17:49:48.325Z,5.90
2018-04-29T17:52:50.835Z,7.37
2018-04-29T17:55:53.400Z,6.60
2018-04-29T17:58:55.986Z,8.00
2018-04-29T18:01:58.544Z,8.83
2018-04-29T18:05:01.018Z,5.30
2018-04-29T18:08:03.622Z,5.43
2018-04-29T18:11:06.151Z,9.47
2018-04-29T18:14:08.679Z,7.07
2018-04-29T18:17:11.227Z,6.43
2018-04-29T18:20:13.727Z,6.17
2018-04-29T18:23:16.194Z,10.23
2018-04-29T18:26:18.718Z,7.90
2018-04-29T18:29:21.202Z,7.17
2018-04-29T18:32:23.796Z,7.43
2018-04-29T18:35:26.302Z,6.87
2018-04-29T18:38:28.831Z,7.80
2018-04-29T18:41:31.347Z,8.37
2018-04-29T18:44:33.847Z,7.97
2018-04-29T18:47:36.452Z,10.50
2018-04-29T18:50:39.089Z,9.70
2018-04-29T18:53:41.476Z,7.20
2018-04-29T18:56:44.018Z,8.67
2018-04-29T18:59:46.596Z,7.27
2018-04-29T19:02:49.058Z,8.57
2018-04-29T19:06:06.467Z,7.57
2018-04-29T19:09:08.981Z,9.80
2018-04-29T19:12:11.510Z,13.40
2018-04-29T19:15:14.155Z,9.23
2018-04-29T19:18:16.717Z,7.70
2018-04-29T19:21:19.287Z,11.73
2018-04-29T19:24:21.804Z,12.03
2018-04-29T19:27:24.433Z,11.43
2018-04-29T19:30:26.969Z,7.47
2018-04-29T19:33:29.509Z,10.57
2018-04-29T19:36:32.055Z,10.80
2018-04-29T19:39:34.631Z,9.47
2018-04-29T19:42:37.106Z,16.37
2018-04-29T19:45:39.678Z,10.33
2018-04-29T19:48:42.225Z,9.33
2018-04-29T19:51:44.719Z,7.70
2018-04-29T19:54:47.200Z,12.47
2018-04-29T19:57:49.735Z,12.90
2018-04-29T20:00:52.248Z,10.07
2018-04-29T20:03:54.707Z,11.80
2018-04-29T20:06:57.361Z,11.30
2018-04-29T20:09:59.831Z,10.50
2018-04-29T20:13:02.331Z,9.63
2018-04-29T20:16:04.832Z,11.70
2018-04-29T20:19:07.390Z,11.07
2018-04-29T20:22:09.859Z,14.03
2018-04-29T20:25:12.353Z,12.77
2018-04-29T20:28:14.903Z,15.33
2018-04-29T20:31:17.434Z,15.17
2018-04-29T20:34:20.005Z,15.37
2018-04-29T20:37:22.527Z,11.40
2018-04-29T20:40:24.979Z,12.30
2018-04-29T20:43:27.553Z,17.40
2018-04-29T20:46:30.085Z,13.23
2018-04-29T20:49:32.554Z,12.03
2018-04-29T20:52:35.108Z,16.03
2018-04-29T20:55:37.699Z,16.87
2018-04-29T20:58:40.273Z,17.23
2018-04-29T21:01:42.767Z,12.67
2018-04-29T21:04:45.313Z,17.17
2018-04-29T21:07:47.829Z,16.57
2018-04-29T21:10:50.286Z,13.33
2018-04-29T21:13:52.870Z,13.60
2018-04-29T21:16:55.379Z,15.60
2018-04-29T21:19:57.908Z,13.77
2018-04-29T21:23:00.365Z,16.13
2018-04-29T21:26:02.827Z,17.97
2018-04-29T21:29:05.375Z,14.00
2018-04-29T21:32:07.894Z,15.80
2018-04-29T21:35:10.425Z,17.63
2018-04-29T21:38:12.939Z,19.20
2018-04-29T21:41:15.430Z,13.87
2018-04-29T21:44:17.889Z,16.20
2018-04-29T21:47:20.379Z,13.87
2018-04-29T21:50:22.843Z,13.93
2018-04-29T21:53:25.375Z,13.63
2018-04-29T21:56:27.883Z,17.03
2018-04-29T21:59:30.394Z,16.03
2018-04-29T22:02:32.872Z,10.83
2018-04-29T22:05:35.415Z,12.30
2018-04-29T22:08:37.865Z,10.93
2018-04-29T22:11:40.442Z,11.53
2018-04-29T22:14:42.884Z,8.23
2018-04-29T22:17:45.368Z,10.30
2018-04-29T22:20:47.934Z,14.50
2018-04-29T22:23:50.449Z,10.20
2018-04-29T22:26:52.924Z,14.00
2018-04-29T22:29:55.430Z,9.53
2018-04-29T22:32:57.921Z,8.07
2018-04-29T22:36:00.429Z,11.13
2018-04-29T22:39:02.908Z,8.53
2018-04-29T22:42:05.376Z,12.37
2018-04-29T22:45:07.913Z,14.10
2018-04-29T22:48:10.451Z,12.10
2018-04-29T22:51:12.969Z,10.23
2018-04-29T22:54:15.440Z,9.57
2018-04-29T22:57:17.915Z,11.07
2018-04-29T23:00:20.356Z,13.17
2018-04-29T23:03:22.880Z,10.83
2018-04-29T23:06:25.403Z,9.60
2018-04-29T23:09:27.889Z,9.90
2018-04-29T23:12:30.569Z,12.53
2018-04-29T23:15:33.075Z,13.87
2018-04-29T23:18:35.524Z,10.37
2018-04-29T23:21:38.005Z,18.83
2018-04-29T23:24:40.500Z,16.60
2018-04-29T23:27:42.958Z,14.37
2018-04-29T23:30:45.439Z,10.67
2018-04-29T23:33:48.000Z,9.93
2018-04-29T23:36:50.520Z,11.20
2018-04-29T23:39:53.079Z,15.57
2018-04-29T23:42:55.541Z,12.97
2018-04-29T23:45:58.030Z,15.07
2018-04-29T23:49:00.523Z,14.10
2018-04-29T23:52:03.040Z,11.37
2018-04-29T23:55:05.538Z,18.60
2018-04-29T23:58:08.035Z,12.90
